Time;durP1;ratioP1;P1;durP2;ratioP2;P2;SDS_P1;SDS_P2;PMS_P1;PMS_P2;Temp;Humidity;BMP_temperature;BMP_pressure;BME280_temperature;BME280_humidity;BME280_pressure;Samples;Min_cycle;Max_cycle;Signal;HPM_P1;HPM_P2
2023/05/31 00:00:24;;;;;;;13.75;4.05;;;9.90;99.90;;;;;;5113980;28;20054;-72
2023/05/31 00:02:50;;;;;;;9.98;3.10;;;10.00;99.90;;;;;;5096277;28;20039;-72
2023/05/31 00:05:16;;;;;;;12.52;3.95;;;9.80;99.90;;;;;;5113893;28;20061;-71
2023/05/31 00:07:42;;;;;;;10.70;3.42;;;9.70;99.90;;;;;;5114383;28;20043;-73
2023/05/31 00:10:08;;;;;;;12.30;3.35;;;9.90;99.90;;;;;;5095692;28;20501;-72
2023/05/31 00:12:33;;;;;;;12.52;3.00;;;9.90;99.90;;;;;;5113874;28;20048;-72
2023/05/31 00:15:01;;;;;;;15.88;4.20;;;;;;;;;;5095932;28;20056;-73
2023/05/31 00:17:27;;;;;;;13.18;4.30;;;;;;;;;;5096425;28;20446;-71
2023/05/31 00:19:53;;;;;;;10.95;3.40;;;;;;;;;;5079280;28;20043;-71
2023/05/31 00:22:20;;;;;;;12.68;5.03;;;;;;;;;;5095852;28;20047;-72
2023/05/31 00:24:46;;;;;;;11.77;3.67;;;;;;;;;;5113748;28;20044;-72
2023/05/31 00:27:12;;;;;;;14.02;4.00;;;;;;;;;;5078782;28;20048;-72
2023/05/31 00:29:38;;;;;;;18.63;4.68;;;;;;;;;;5095739;28;20043;-71
2023/05/31 00:32:04;;;;;;;15.15;4.22;;;;;;;;;;5096439;28;20445;-72
2023/05/31 00:34:30;;;;;;;11.40;3.73;;;;;;;;;;5113761;28;20401;-72
2023/05/31 00:36:56;;;;;;;12.50;4.25;;;;;;;;;;5095442;28;20281;-73
2023/05/31 00:39:23;;;;;;;12.93;3.33;;;;;;;;;;5113311;28;20508;-72
2023/05/31 00:41:49;;;;;;;10.98;3.70;;;;;;;;;;5113572;28;20083;-72
2023/05/31 00:44:15;;;;;;;12.88;3.88;;;;;;;;;;5095620;28;20058;-71
2023/05/31 00:46:41;;;;;;;13.07;4.28;;;;;;;;;;5097074;28;20073;-72
2023/05/31 00:49:08;;;;;;;13.70;4.85;;;;;;;;;;5083385;28;20388;-72
2023/05/31 00:51:36;;;;;;;13.43;4.93;;;;;;;;;;5099261;28;20047;-72
2023/05/31 00:54:02;;;;;;;15.23;4.40;;;9.30;99.90;;;;;;5098854;28;20047;-72
2023/05/31 00:56:28;;;;;;;13.38;3.95;;;9.30;99.90;;;;;;5117415;28;20039;-72
2023/05/31 00:58:56;;;;;;;17.15;4.95;;;9.30;99.90;;;;;;5099095;28;20050;-72
2023/05/31 01:01:26;;;;;;;13.77;4.63;;;9.30;99.90;;;;;;5099188;28;20040;-72
2023/05/31 01:03:56;;;;;;;19.35;4.70;;;9.20;99.90;;;;;;5099118;28;20036;-73
2023/05/31 01:06:31;;;;;;;14.02;4.30;;;9.30;99.90;;;;;;5117218;28;20097;-73
2023/05/31 01:09:04;;;;;;;13.68;3.78;;;9.20;99.90;;;;;;5067178;28;20043;-72
2023/05/31 01:11:45;;;;;;;13.60;4.18;;;9.10;99.90;;;;;;5099227;28;20504;-73
2023/05/31 01:14:28;;;;;;;16.85;4.38;;;9.10;99.90;;;;;;5078231;28;20052;-72
2023/05/31 01:17:14;;;;;;;12.82;3.90;;;9.10;99.90;;;;;;5096193;28;20125;-72
2023/05/31 01:19:52;;;;;;;11.77;3.63;;;8.90;99.90;;;;;;5096253;28;20051;-73
2023/05/31 01:22:37;;;;;;;12.63;3.75;;;8.90;99.90;;;;;;5095901;28;20052;-71
2023/05/31 01:25:27;;;;;;;16.33;4.53;;;9.10;99.90;;;;;;5095969;28;20093;-72
2023/05/31 01:27:54;;;;;;;14.40;5.18;;;9.00;99.90;;;;;;5097346;28;20044;-72
2023/05/31 01:30:21;;;;;;;15.80;4.32;;;9.10;99.90;;;;;;5096486;28;20040;-72
2023/05/31 01:32:49;;;;;;;15.55;4.63;;;9.00;99.90;;;;;;5095569;28;20138;-72
2023/05/31 01:35:15;;;;;;;13.30;3.88;;;9.00;99.90;;;;;;5096240;28;20105;-73
2023/05/31 01:37:40;;;;;;;14.55;4.20;;;9.00;99.90;;;;;;5078673;28;20047;-72
2023/05/31 01:40:08;;;;;;;15.45;4.95;;;9.00;99.90;;;;;;5096276;28;20044;-74
2023/05/31 01:42:35;;;;;;;14.90;4.47;;;9.00;99.90;;;;;;5095406;28;20056;-72
2023/05/31 01:45:01;;;;;;;16.20;4.30;;;9.00;99.90;;;;;;5095021;28;20059;-72
2023/05/31 01:47:30;;;;;;;14.07;5.45;;;9.00;99.90;;;;;;5096208;28;20059;-73
2023/05/31 01:49:57;;;;;;;15.00;4.38;;;9.00;99.90;;;;;;5096003;28;20075;-73
2023/05/31 01:52:23;;;;;;;14.25;4.15;;;9.00;99.90;;;;;;5095131;28;20082;-71
2023/05/31 01:54:49;;;;;;;13.00;3.80;;;8.90;99.90;;;;;;5096846;28;20479;-72
2023/05/31 01:57:16;;;;;;;12.13;4.00;;;8.90;99.90;;;;;;5094366;28;20065;-73
2023/05/31 01:59:43;;;;;;;13.25;3.97;;;8.90;99.90;;;;;;5093864;28;20051;-72
2023/05/31 02:02:09;;;;;;;12.80;3.85;;;8.90;99.90;;;;;;5095926;28;20398;-73
2023/05/31 02:04:35;;;;;;;14.70;4.68;;;8.90;99.90;;;;;;5094855;28;20044;-73
2023/05/31 02:07:01;;;;;;;14.60;5.43;;;8.90;99.90;;;;;;5077891;28;20057;-72
2023/05/31 02:09:27;;;;;;;12.68;4.53;;;8.80;99.90;;;;;;5094760;28;20040;-72
2023/05/31 02:11:52;;;;;;;11.75;4.28;;;8.80;99.90;;;;;;5095647;28;20044;-72
2023/05/31 02:14:18;;;;;;;12.23;4.13;;;8.80;99.90;;;;;;5094048;28;20393;-73
2023/05/31 02:16:44;;;;;;;12.68;4.65;;;8.80;99.90;;;;;;5096163;28;20062;-73
2023/05/31 02:19:13;;;;;;;11.60;4.03;;;8.80;99.90;;;;;;5095754;28;20517;-72
2023/05/31 02:21:40;;;;;;;14.63;4.70;;;8.80;99.90;;;;;;5094826;28;20048;-72
2023/05/31 02:24:05;;;;;;;15.23;5.00;;;8.70;99.90;;;;;;5094488;28;20048;-72
2023/05/31 02:26:31;;;;;;;12.73;4.22;;;8.70;99.90;;;;;;5078216;28;20541;-71
2023/05/31 02:28:57;;;;;;;15.13;4.13;;;8.60;99.90;;;;;;5094189;28;20117;-75
2023/05/31 02:31:23;;;;;;;13.25;4.35;;;8.70;99.90;;;;;;5077437;28;20169;-72
2023/05/31 02:33:48;;;;;;;15.65;5.30;;;8.60;99.90;;;;;;5095203;28;20396;-72
2023/05/31 02:36:14;;;;;;;14.15;4.65;;;8.60;99.90;;;;;;5095015;28;20044;-71
2023/05/31 02:38:40;;;;;;;19.30;4.72;;;8.60;99.90;;;;;;5093967;28;20474;-72
2023/05/31 02:41:06;;;;;;;13.40;4.57;;;8.60;99.90;;;;;;5095013;28;20083;-73
2023/05/31 02:43:31;;;;;;;15.30;4.70;;;8.60;99.90;;;;;;5095039;28;20147;-72
2023/05/31 02:46:01;;;;;;;16.42;4.82;;;8.60;99.90;;;;;;5093903;28;20211;-72
2023/05/31 02:48:28;;;;;;;15.02;4.43;;;8.60;99.90;;;;;;5094184;28;20048;-71
2023/05/31 02:50:54;;;;;;;20.60;5.63;;;8.60;99.90;;;;;;5093595;28;20452;-73
2023/05/31 02:53:19;;;;;;;18.67;6.13;;;8.60;99.90;;;;;;5095196;28;20083;-72
2023/05/31 02:55:46;;;;;;;17.52;5.03;;;8.60;99.90;;;;;;5093593;28;20048;-72
2023/05/31 02:58:14;;;;;;;16.58;4.80;;;8.60;99.90;;;;;;5077277;28;20082;-69
2023/05/31 03:00:40;;;;;;;15.13;4.38;;;8.60;99.90;;;;;;5095444;28;20052;-70
2023/05/31 03:03:06;;;;;;;14.23;4.50;;;8.50;99.90;;;;;;5076674;28;20048;-70
2023/05/31 03:05:33;;;;;;;13.70;4.80;;;8.60;99.90;;;;;;5094311;28;20044;-70
2023/05/31 03:07:59;;;;;;;;;;;8.50;99.90;;;;;;5094973;28;20040;-70
2023/05/31 03:10:24;;;;;;;16.65;5.22;;;8.50;99.90;;;;;;5094067;28;19920;-71
2023/05/31 03:12:50;;;;;;;15.25;4.88;;;8.50;99.90;;;;;;5093176;28;20056;-70
2023/05/31 03:15:16;;;;;;;15.90;4.93;;;8.40;99.90;;;;;;5092967;28;20114;-70
2023/05/31 03:17:41;;;;;;;15.93;4.80;;;8.40;99.90;;;;;;5093703;28;20168;-70
2023/05/31 03:20:08;;;;;;;20.92;5.40;;;8.40;99.90;;;;;;5093557;28;20047;-70
2023/05/31 03:22:35;;;;;;;19.10;4.88;;;8.40;99.90;;;;;;5094227;28;20084;-70
2023/05/31 03:25:02;;;;;;;16.15;4.50;;;8.40;99.90;;;;;;5076657;28;20044;-70
2023/05/31 03:27:28;;;;;;;17.20;5.00;;;8.40;99.90;;;;;;5076315;28;20135;-70
2023/05/31 03:29:55;;;;;;;14.13;4.85;;;8.40;99.90;;;;;;5076771;28;20122;-70
2023/05/31 03:32:20;;;;;;;16.70;5.57;;;8.40;99.90;;;;;;5094514;28;20047;-70
2023/05/31 03:34:46;;;;;;;16.73;4.75;;;8.40;99.90;;;;;;5093930;28;20443;-69
2023/05/31 03:37:12;;;;;;;19.52;4.68;;;8.40;99.90;;;;;;5094684;28;20381;-69
2023/05/31 03:39:37;;;;;;;15.13;5.10;;;8.40;99.90;;;;;;5093936;28;20040;-71
2023/05/31 03:42:05;;;;;;;23.38;5.68;;;8.40;99.90;;;;;;5092933;28;20095;-74
2023/05/31 03:44:31;;;;;;;15.18;4.65;;;8.40;99.90;;;;;;5094676;28;20071;-71
2023/05/31 03:46:58;;;;;;;22.13;7.38;;;8.40;99.90;;;;;;5092285;28;20478;-69
2023/05/31 03:49:24;;;;;;;14.20;4.80;;;8.40;99.90;;;;;;5093971;28;20044;-69
2023/05/31 03:51:49;;;;;;;19.15;4.95;;;8.40;99.90;;;;;;5093724;28;20051;-70
2023/05/31 03:54:15;;;;;;;15.95;5.28;;;8.50;99.90;;;;;;5075578;28;20067;-71
2023/05/31 03:56:41;;;;;;;17.73;5.10;;;8.50;99.90;;;;;;5093777;28;20089;-69
2023/05/31 03:59:07;;;;;;;18.08;5.72;;;8.50;99.90;;;;;;5075792;28;20051;-70
2023/05/31 04:01:33;;;;;;;16.27;5.03;;;8.50;99.90;;;;;;5092919;28;20044;-70
2023/05/31 04:03:59;;;;;;;17.85;5.95;;;8.50;99.90;;;;;;5092543;28;20044;-69
2023/05/31 04:06:26;;;;;;;17.88;5.13;;;8.60;99.90;;;;;;5092452;28;20138;-68
2023/05/31 04:08:52;;;;;;;17.52;5.10;;;8.60;99.90;;;;;;5093739;28;20405;-69
2023/05/31 04:11:18;;;;;;;15.50;4.28;;;8.60;99.90;;;;;;5093425;28;20048;-69
2023/05/31 04:13:44;;;;;;;17.67;4.60;;;8.60;99.90;;;;;;5095016;28;20100;-70
2023/05/31 04:16:10;;;;;;;20.20;5.38;;;8.60;99.90;;;;;;5095613;28;20059;-71
2023/05/31 04:18:36;;;;;;;18.73;5.18;;;8.60;99.90;;;;;;5062588;28;20055;-69
2023/05/31 04:21:02;;;;;;;18.67;5.57;;;8.70;99.90;;;;;;5114110;28;20047;-70
2023/05/31 04:23:27;;;;;;;14.25;4.13;;;8.70;99.90;;;;;;5117763;28;20091;-70
2023/05/31 04:25:53;;;;;;;18.75;6.10;;;8.80;99.90;;;;;;5117768;28;20500;-71
2023/05/31 04:28:20;;;;;;;13.57;4.85;;;8.80;99.90;;;;;;5117839;28;20123;-69
2023/05/31 04:30:46;;;;;;;16.92;4.93;;;8.90;99.90;;;;;;5117885;28;20489;-70
2023/05/31 04:33:12;;;;;;;18.67;4.72;;;8.90;99.90;;;;;;5082763;28;20051;-70
2023/05/31 04:35:38;;;;;;;16.30;4.47;;;8.90;99.90;;;;;;5099354;28;20051;-71
2023/05/31 04:38:04;;;;;;;17.80;5.40;;;9.00;99.90;;;;;;5118359;28;20047;-70
2023/05/31 04:40:31;;;;;;;16.95;5.50;;;9.00;99.90;;;;;;5099668;28;20397;-70
2023/05/31 04:43:00;;;;;;;17.88;5.60;;;9.10;99.90;;;;;;5117809;28;20044;-71
2023/05/31 04:45:27;;;;;;;17.73;5.22;;;9.10;99.90;;;;;;5117558;28;20055;-70
2023/05/31 04:47:53;;;;;;;15.57;4.50;;;9.20;99.90;;;;;;5117627;28;20062;-70
2023/05/31 04:50:18;;;;;;;18.88;5.47;;;9.30;99.90;;;;;;5117349;28;20048;-71
2023/05/31 04:52:44;;;;;;;17.77;5.88;;;9.30;99.90;;;;;;5099481;28;20051;-71
2023/05/31 04:55:10;;;;;;;17.88;5.32;;;9.30;99.90;;;;;;5117362;28;20043;-69
2023/05/31 04:57:36;;;;;;;17.05;5.47;;;9.40;99.90;;;;;;5099112;28;20043;-71
2023/05/31 05:00:08;;;;;;;16.30;5.10;;;9.50;99.90;;;;;;5099676;28;20126;-70
2023/05/31 05:02:34;;;;;;;18.08;4.80;;;9.60;99.90;;;;;;5117411;28;20059;-71
2023/05/31 05:04:59;;;;;;;19.83;5.60;;;9.60;99.90;;;;;;5118103;28;20373;-69
2023/05/31 05:07:25;;;;;;;17.00;6.05;;;9.80;99.90;;;;;;5117141;28;20040;-70
2023/05/31 05:09:51;;;;;;;20.15;5.78;;;9.80;99.90;;;;;;5117193;28;20039;-70
2023/05/31 05:12:17;;;;;;;19.33;5.20;;;9.90;99.90;;;;;;5117168;28;20066;-71
2023/05/31 05:14:43;;;;;;;19.63;6.60;;;10.00;99.90;;;;;;5117329;28;20133;-71
2023/05/31 05:17:09;;;;;;;20.03;6.03;;;10.10;99.90;;;;;;5117109;28;20051;-71
2023/05/31 05:19:35;;;;;;;22.65;7.45;;;10.20;99.90;;;;;;5118083;28;20300;-71
2023/05/31 05:22:00;;;;;;;20.42;8.07;;;10.30;99.90;;;;;;5098876;28;20393;-71
2023/05/31 05:24:26;;;;;;;17.20;6.10;;;10.40;99.90;;;;;;5099617;28;20070;-70
2023/05/31 05:26:52;;;;;;;20.23;6.30;;;10.50;99.90;;;;;;5098490;28;20127;-72
2023/05/31 05:29:18;;;;;;;21.08;5.78;;;10.60;99.90;;;;;;5081981;28;20063;-69
2023/05/31 05:31:43;;;;;;;20.50;6.28;;;10.60;99.90;;;;;;5098362;28;20068;-70
2023/05/31 05:34:09;;;;;;;17.65;6.47;;;10.70;99.90;;;;;;5117210;28;20459;-71
2023/05/31 05:36:36;;;;;;;21.80;6.85;;;10.80;99.90;;;;;;5081742;28;20094;-70
2023/05/31 05:39:06;;;;;;;21.95;7.93;;;10.90;99.90;;;;;;5117108;28;20096;-70
2023/05/31 05:41:31;;;;;;;23.88;7.18;;;11.00;99.90;;;;;;5098433;28;20058;-70
2023/05/31 05:43:57;;;;;;;22.67;8.45;;;11.10;99.90;;;;;;5098462;28;20048;-71
2023/05/31 05:46:23;;;;;;;15.88;6.07;;;11.10;99.90;;;;;;5098357;28;20126;-73
2023/05/31 05:48:49;;;;;;;19.02;7.18;;;11.20;99.90;;;;;;5098290;28;20056;-71
2023/05/31 05:51:15;;;;;;;22.65;7.20;;;11.20;99.90;;;;;;5097681;28;20485;-71
2023/05/31 05:53:40;;;;;;;17.58;7.40;;;11.30;99.90;;;;;;5116377;28;20121;-70
2023/05/31 05:56:06;;;;;;;24.05;8.18;;;11.40;99.90;;;;;;5116347;28;20039;-70
2023/05/31 05:58:32;;;;;;;17.30;6.18;;;11.40;99.90;;;;;;5116187;28;20485;-70
2023/05/31 06:00:58;;;;;;;19.75;8.35;;;11.50;99.90;;;;;;5115889;28;20069;-70
2023/05/31 06:03:24;;;;;;;20.08;8.02;;;11.60;99.90;;;;;;5116465;28;20199;-71
2023/05/31 06:05:49;;;;;;;20.98;7.28;;;11.70;99.90;;;;;;5098174;28;20070;-70
2023/05/31 06:08:15;;;;;;;15.82;6.28;;;11.80;99.90;;;;;;5116235;28;20043;-71
2023/05/31 06:10:41;;;;;;;20.88;7.90;;;11.90;99.90;;;;;;5097742;28;20044;-71
2023/05/31 06:13:07;;;;;;;15.60;6.53;;;12.00;99.90;;;;;;5097961;28;20051;-70
2023/05/31 06:15:33;;;;;;;17.05;8.52;;;12.10;99.90;;;;;;5097565;28;20111;-70
2023/05/31 06:17:59;;;;;;;15.55;6.72;;;12.40;99.90;;;;;;5097560;28;20043;-71
2023/05/31 06:20:26;;;;;;;13.30;5.88;;;12.40;99.90;;;;;;5116341;28;20042;-71
2023/05/31 06:22:52;;;;;;;14.32;5.90;;;12.50;99.90;;;;;;5115734;28;20050;-69
2023/05/31 06:25:19;;;;;;;18.10;6.60;;;12.60;99.90;;;;;;5115735;28;20047;-70
2023/05/31 06:27:45;;;;;;;17.13;6.28;;;12.70;99.90;;;;;;5097701;28;20048;-72
2023/05/31 06:30:12;;;;;;;13.43;6.78;;;12.80;99.90;;;;;;5097710;28;20054;-71
2023/05/31 06:32:38;;;;;;;;;;;12.90;99.90;;;;;;5115641;28;20050;-70
2023/05/31 06:35:05;;;;;;;14.23;6.10;;;13.00;99.90;;;;;;5080264;28;20357;-70
2023/05/31 06:37:31;;;;;;;14.68;5.20;;;13.10;99.90;;;;;;5080412;28;20358;-70
2023/05/31 06:39:57;;;;;;;11.60;3.73;;;13.20;99.90;;;;;;5114767;28;20567;-71
2023/05/31 06:42:23;;;;;;;12.50;5.70;;;13.30;99.90;;;;;;5114905;28;20207;-72
2023/05/31 06:44:48;;;;;;;16.85;5.38;;;13.40;99.90;;;;;;5097106;28;20160;-70
2023/05/31 06:47:14;;;;;;;14.73;5.68;;;13.40;99.90;;;;;;5096959;28;20076;-70
2023/05/31 06:49:40;;;;;;;12.90;5.18;;;13.50;99.90;;;;;;5115137;28;20123;-71
2023/05/31 06:52:06;;;;;;;10.68;4.72;;;13.60;99.90;;;;;;5114909;28;20047;-70
2023/05/31 06:54:36;;;;;;;10.55;4.47;;;13.80;99.90;;;;;;5115039;28;20122;-71
2023/05/31 06:57:05;;;;;;;12.63;5.13;;;13.90;99.90;;;;;;5079725;28;20052;-71
2023/05/31 06:59:31;;;;;;;13.95;5.22;;;13.90;99.90;;;;;;5096453;28;20127;-83
2023/05/31 07:01:57;;;;;;;13.02;4.82;;;14.00;99.90;;;;;;5097454;28;20075;-70
2023/05/31 07:04:23;;;;;;;12.77;4.75;;;14.10;99.90;;;;;;5096720;28;20093;-70
2023/05/31 07:06:49;;;;;;;10.27;4.72;;;14.30;99.90;;;;;;5080288;28;20490;-69
2023/05/31 07:09:15;;;;;;;14.95;4.25;;;14.30;99.90;;;;;;5096103;28;20121;-72
2023/05/31 07:11:41;;;;;;;12.55;5.28;;;14.40;99.90;;;;;;5096216;28;20473;-70
2023/05/31 07:14:08;;;;;;;15.10;4.95;;;14.50;99.90;;;;;;5114518;28;20059;-71
2023/05/31 07:16:33;;;;;;;14.10;4.45;;;14.60;99.90;;;;;;5096309;28;20066;-76
2023/05/31 07:18:59;;;;;;;12.77;4.05;;;14.70;99.90;;;;;;5114407;28;20044;-69
2023/05/31 07:21:25;;;;;;;10.40;4.32;;;14.80;99.90;;;;;;5080303;28;20051;-69
2023/05/31 07:23:51;;;;;;;11.32;3.92;;;14.80;99.90;;;;;;5095901;28;20096;-71
2023/05/31 07:26:17;;;;;;;13.27;3.90;;;14.90;99.90;;;;;;5114353;28;20054;-71
2023/05/31 07:28:46;;;;;;;11.32;5.50;;;15.00;99.90;;;;;;5095957;28;20059;-70
2023/05/31 07:31:15;;;;;;;10.65;4.63;;;15.00;99.90;;;;;;5114199;28;20040;-69
2023/05/31 07:33:41;;;;;;;10.52;4.22;;;15.10;99.90;;;;;;5096641;28;20548;-70
2023/05/31 07:36:07;;;;;;;12.23;4.90;;;15.20;99.90;;;;;;5114538;28;20496;-69
2023/05/31 07:38:33;;;;;;;10.70;4.38;;;15.30;99.90;;;;;;5114792;28;20055;-71
2023/05/31 07:40:59;;;;;;;12.43;4.53;;;15.30;99.90;;;;;;5114880;28;20039;-68
2023/05/31 07:43:25;;;;;;;11.10;4.13;;;15.30;99.90;;;;;;5096172;28;20385;-69
2023/05/31 07:45:54;;;;;;;12.93;4.68;;;15.50;99.90;;;;;;5095731;28;20184;-70
2023/05/31 07:48:20;;;;;;;9.50;4.13;;;15.60;99.90;;;;;;5095706;28;20040;-70
2023/05/31 07:50:47;;;;;;;11.45;4.90;;;15.60;99.90;;;;;;5113495;28;20536;-69
2023/05/31 07:53:13;;;;;;;10.25;4.05;;;15.80;99.90;;;;;;5114431;28;20047;-69
2023/05/31 07:55:39;;;;;;;11.48;4.78;;;15.90;99.90;;;;;;5078379;28;20051;-71
2023/05/31 07:58:05;;;;;;;11.80;4.57;;;15.90;99.90;;;;;;5114058;28;20080;-69
2023/05/31 08:00:31;;;;;;;9.30;3.87;;;16.10;99.90;;;;;;5079106;28;20050;-70
2023/05/31 08:02:56;;;;;;;13.68;4.07;;;16.10;99.90;;;;;;5114353;28;20123;-69
2023/05/31 08:05:22;;;;;;;10.65;4.15;;;16.20;99.90;;;;;;5114381;28;20048;-68
2023/05/31 08:07:48;;;;;;;9.88;4.32;;;16.30;99.90;;;;;;5095669;28;20044;-70
2023/05/31 08:10:15;;;;;;;9.60;3.67;;;16.40;99.90;;;;;;5113563;28;20039;-69
2023/05/31 08:12:41;;;;;;;13.18;4.90;;;16.50;99.90;;;;;;5113696;28;20063;-70
2023/05/31 08:15:08;;;;;;;9.17;4.10;;;16.50;99.90;;;;;;5095269;28;20059;-69
2023/05/31 08:17:33;;;;;;;11.48;4.22;;;16.60;99.90;;;;;;5113619;28;20285;-70
2023/05/31 08:19:59;;;;;;;11.35;4.30;;;16.70;99.90;;;;;;5095514;28;20388;-71
2023/05/31 08:22:25;;;;;;;11.43;4.40;;;16.70;99.90;;;;;;5113955;28;20388;-73
2023/05/31 08:24:51;;;;;;;10.38;4.35;;;16.80;99.90;;;;;;5095649;28;20047;-70
2023/05/31 08:27:17;;;;;;;8.32;4.30;;;16.80;99.90;;;;;;5078907;28;20131;-70
2023/05/31 08:29:43;;;;;;;11.97;3.77;;;16.90;99.90;;;;;;5094994;28;20509;-70
2023/05/31 08:32:09;;;;;;;12.93;3.75;;;17.00;99.90;;;;;;5095004;28;20493;-69
2023/05/31 08:34:35;;;;;;;12.55;3.90;;;17.10;99.90;;;;;;5114258;28;20043;-69
2023/05/31 08:37:01;;;;;;;15.18;3.97;;;17.20;99.90;;;;;;5079104;28;20130;-70
2023/05/31 08:39:27;;;;;;;13.50;4.10;;;17.20;99.90;;;;;;5113477;28;20082;-71
2023/05/31 08:42:03;;;;;;;11.30;3.90;;;17.30;99.90;;;;;;5113240;28;20079;-70
2023/05/31 08:44:29;;;;;;;9.52;3.67;;;17.50;99.90;;;;;;5095064;28;20048;-69
2023/05/31 08:47:08;;;;;;;9.13;3.08;;;17.60;99.90;;;;;;5095111;28;20512;-70
2023/05/31 08:49:34;;;;;;;9.98;3.15;;;17.70;99.90;;;;;;5113126;28;20043;-69
2023/05/31 08:52:00;;;;;;;10.75;3.53;;;17.80;99.90;;;;;;5078254;28;20043;-68
2023/05/31 08:54:26;;;;;;;10.52;3.33;;;17.80;99.90;;;;;;5113765;28;20495;-69
2023/05/31 08:56:53;;;;;;;12.27;3.70;;;17.90;99.90;;;;;;5095449;28;20043;-69
2023/05/31 08:59:19;;;;;;;14.85;3.50;;;18.10;99.90;;;;;;5095130;28;20162;-71
2023/05/31 09:01:47;;;;;;;15.13;4.25;;;18.20;99.90;;;;;;5078247;28;20126;-69
2023/05/31 09:04:14;;;;;;;12.15;3.55;;;18.30;99.90;;;;;;5095430;28;20040;-69
2023/05/31 09:06:40;;;;;;;10.80;3.60;;;18.40;99.90;;;;;;5077887;28;20054;-73
2023/05/31 09:09:08;;;;;;;9.70;3.43;;;18.40;99.90;;;;;;5116533;28;20087;-70
2023/05/31 09:11:37;;;;;;;13.40;3.70;;;18.50;99.90;;;;;;5083160;28;20119;-71
2023/05/31 09:14:04;;;;;;;10.20;3.10;;;18.50;99.90;;;;;;5082348;28;20077;-72
2023/05/31 09:16:30;;;;;;;10.50;3.53;;;18.40;99.90;;;;;;5066611;28;20056;-71
2023/05/31 09:19:04;;;;;;;9.03;3.60;;;18.50;99.90;;;;;;5098852;28;20393;-70
2023/05/31 09:21:40;;;;;;;11.45;3.58;;;18.60;99.90;;;;;;5099833;28;20446;-70
2023/05/31 09:24:06;;;;;;;12.25;4.00;;;18.60;99.90;;;;;;5116786;28;20043;-70
2023/05/31 09:26:33;;;;;;;9.90;4.20;;;18.60;99.90;;;;;;5116737;28;20472;-72
2023/05/31 09:28:59;;;;;;;10.32;3.47;;;18.60;99.90;;;;;;5116699;28;20051;-70
2023/05/31 09:31:25;;;;;;;12.17;3.40;;;18.80;99.90;;;;;;5098379;28;20048;-71
2023/05/31 09:33:54;;;;;;;9.83;3.43;;;18.70;99.90;;;;;;5098031;28;20700;-70
2023/05/31 09:36:31;;;;;;;12.05;3.33;;;18.90;99.90;;;;;;5116686;28;20054;-72
2023/05/31 09:39:04;;;;;;;10.60;3.28;;;19.00;99.90;;;;;;5098284;28;20043;-72
2023/05/31 09:41:34;;;;;;;7.53;3.05;;;19.10;99.90;;;;;;5081242;28;20054;-70
2023/05/31 09:44:01;;;;;;;10.05;3.33;;;19.20;99.90;;;;;;5116951;28;20043;-70
2023/05/31 09:46:27;;;;;;;9.82;3.10;;;19.30;99.90;;;;;;5098413;28;20126;-69
2023/05/31 09:49:11;;;;;;;8.30;2.97;;;19.40;99.90;;;;;;5064942;28;20071;-71
2023/05/31 09:51:37;;;;;;;8.90;2.50;;;19.30;99.90;;;;;;5116685;28;20100;-71
2023/05/31 09:54:14;;;;;;;8.40;2.60;;;19.40;99.90;;;;;;5098737;28;20484;-70
2023/05/31 09:56:43;;;;;;;13.40;3.10;;;19.50;99.90;;;;;;5098902;28;20138;-69
2023/05/31 09:59:10;;;;;;;9.18;2.58;;;19.60;99.90;;;;;;5098101;28;20051;-70
2023/05/31 10:01:36;;;;;;;9.70;2.80;;;19.70;99.90;;;;;;5097919;28;20074;-69
2023/05/31 10:04:04;;;;;;;6.38;2.22;;;19.80;99.90;;;;;;5097975;28;20074;-71
2023/05/31 10:06:34;;;;;;;8.77;2.75;;;19.90;99.90;;;;;;5116139;28;20050;-71
2023/05/31 10:09:07;;;;;;;10.18;2.35;;;20.00;99.90;;;;;;5116140;28;20393;-72
2023/05/31 10:11:36;;;;;;;9.52;2.70;;;20.00;99.90;;;;;;5116853;28;20054;-71
2023/05/31 10:14:13;;;;;;;6.78;2.70;;;20.00;99.90;;;;;;5115913;28;20047;-70
2023/05/31 10:17:04;;;;;;;9.15;2.92;;;20.00;99.90;;;;;;5115926;28;20079;-70
2023/05/31 10:19:40;;;;;;;8.85;2.58;;;20.10;99.90;;;;;;5114109;28;20520;-70
2023/05/31 10:22:07;;;;;;;11.80;4.28;;;20.20;99.90;;;;;;5115779;28;20051;-70
2023/05/31 10:25:04;;;;;;;8.90;3.17;;;20.30;99.90;;;;;;5115821;28;20138;-70
2023/05/31 10:27:36;;;;;;;11.45;3.00;;;20.20;99.90;;;;;;5064842;28;20609;-73
2023/05/31 10:30:04;;;;;;;10.05;3.20;;;20.00;99.90;;;;;;5116345;28;20118;-68
2023/05/31 10:32:34;;;;;;;7.63;2.65;;;20.10;99.90;;;;;;5097866;28;20074;-70
2023/05/31 10:35:01;;;;;;;8.20;2.72;;;20.10;99.90;;;;;;5097476;28;20047;-71
2023/05/31 10:37:28;;;;;;;8.35;2.63;;;20.40;99.90;;;;;;5097346;28;20052;-70
2023/05/31 10:40:12;;;;;;;12.82;2.95;;;20.50;99.90;;;;;;5115443;28;20062;-73
2023/05/31 10:42:59;;;;;;;11.65;2.92;;;20.40;99.90;;;;;;5115477;28;20039;-69
2023/05/31 10:45:45;;;;;;;11.98;2.70;;;20.50;99.90;;;;;;5115353;28;20066;-70
2023/05/31 10:48:37;;;;;;;6.35;2.35;;;20.50;99.90;;;;;;5097615;28;20062;-71
2023/05/31 10:51:03;;;;;;;29.58;2.92;;;20.40;99.90;;;;;;5115810;28;20047;-70
2023/05/31 10:53:31;;;;;;;8.87;2.80;;;20.60;99.90;;;;;;5098002;28;20522;-71
2023/05/31 10:56:05;;;;;;;9.75;3.00;;;20.80;99.90;;;;;;5080795;28;20093;-70
2023/05/31 10:58:36;;;;;;;7.53;2.90;;;20.90;99.90;;;;;;5115042;28;20058;-70
2023/05/31 11:01:05;;;;;;;7.88;2.45;;;21.00;99.90;;;;;;5115290;28;20048;-70
2023/05/31 11:03:42;;;;;;;9.73;2.72;;;21.10;99.90;;;;;;5096964;28;20051;-71
2023/05/31 11:06:09;;;;;;;6.25;2.55;;;21.00;99.90;;;;;;5114974;28;20374;-71
2023/05/31 11:08:35;;;;;;;8.60;2.65;;;20.90;99.90;;;;;;5114983;28;20044;-70
2023/05/31 11:11:31;;;;;;;6.25;2.30;;;21.10;99.90;;;;;;5080340;28;20054;-73
2023/05/31 11:14:06;;;;;;;8.75;3.28;;;21.10;99.90;;;;;;5084367;28;20434;-70
2023/05/31 11:16:47;;;;;;;12.57;4.30;;;21.30;99.90;;;;;;5097285;28;20043;-72
2023/05/31 11:19:17;;;;;;;7.65;1.85;;;21.40;99.90;;;;;;5114404;28;20048;-71
2023/05/31 11:22:07;;;;;;;7.82;2.42;;;21.40;99.80;;;;;;5097213;28;20043;-71
2023/05/31 11:24:38;;;;;;;11.52;2.72;;;21.40;99.90;;;;;;5114464;28;20047;-70
2023/05/31 11:27:06;;;;;;;8.38;2.05;;;21.50;99.90;;;;;;5114276;28;20092;-71
2023/05/31 11:29:44;;;;;;;8.68;2.47;;;21.60;99.90;;;;;;5114900;28;20043;-71
2023/05/31 11:32:10;;;;;;;6.10;2.30;;;21.70;99.90;;;;;;5095503;28;20078;-71
2023/05/31 11:34:53;;;;;;;11.45;2.67;;;21.70;99.90;;;;;;5096223;28;20070;-71
2023/05/31 11:37:23;;;;;;;8.20;2.40;;;21.80;99.90;;;;;;5114983;28;20044;-70
2023/05/31 11:39:49;;;;;;;12.27;2.70;;;21.70;99.70;;;;;;5095883;28;20048;-71
2023/05/31 11:42:15;;;;;;;7.60;2.70;;;21.60;99.80;;;;;;5095667;28;20047;-72
2023/05/31 11:44:43;;;;;;;8.38;2.80;;;21.70;99.50;;;;;;5096114;28;20047;-70
2023/05/31 11:47:20;;;;;;;5.68;2.10;;;21.60;98.60;;;;;;5113844;28;20048;-71
2023/05/31 11:49:46;;;;;;;12.88;2.72;;;21.60;99.30;;;;;;5096124;28;20055;-71
2023/05/31 11:52:17;;;;;;;7.53;2.08;;;21.70;99.60;;;;;;5079108;28;20090;-72
2023/05/31 11:54:45;;;;;;;7.05;2.30;;;21.70;98.30;;;;;;5095519;28;20051;-70
2023/05/31 11:57:12;;;;;;;12.70;3.55;;;21.80;99.60;;;;;;5114254;28;20043;-74
2023/05/31 11:59:39;;;;;;;8.65;2.55;;;21.80;99.10;;;;;;5096184;28;20143;-72
2023/05/31 12:02:06;;;;;;;12.75;3.10;;;21.80;98.80;;;;;;5096315;28;20051;-70
2023/05/31 12:04:36;;;;;;;9.35;2.63;;;21.80;99.00;;;;;;5113994;28;20051;-70
2023/05/31 12:07:06;;;;;;;6.88;2.50;;;22.00;99.40;;;;;;5113965;28;20123;-70
2023/05/31 12:09:35;;;;;;;9.88;3.25;;;22.10;99.00;;;;;;5094745;28;20528;-71
2023/05/31 12:12:05;;;;;;;8.95;2.40;;;22.00;98.60;;;;;;5095953;28;20047;-71
2023/05/31 12:14:32;;;;;;;10.80;2.88;;;22.10;98.50;;;;;;5113304;28;20052;-72
2023/05/31 12:17:07;;;;;;;6.75;3.08;;;22.00;99.80;;;;;;5095272;28;20087;-71
2023/05/31 12:19:33;;;;;;;12.50;3.13;;;21.90;99.90;;;;;;5113991;28;20051;-73
2023/05/31 12:22:00;;;;;;;10.13;2.70;;;21.70;99.90;;;;;;5095436;28;20104;-70
2023/05/31 12:24:26;;;;;;;11.55;3.15;;;21.80;99.90;;;;;;5113370;28;20056;-75
2023/05/31 12:26:54;;;;;;;12.27;3.30;;;21.70;99.90;;;;;;5113369;28;20420;-70
2023/05/31 12:29:30;;;;;;;10.32;3.50;;;21.80;99.90;;;;;;5113352;28;20048;-71
2023/05/31 12:32:06;;;;;;;15.20;3.25;;;21.80;99.90;;;;;;5096031;28;20052;-71
2023/05/31 12:34:36;;;;;;;10.60;3.30;;;21.80;99.90;;;;;;5095223;28;20373;-70
2023/05/31 12:37:06;;;;;;;11.75;3.10;;;21.80;99.90;;;;;;5113912;28;20130;-70
2023/05/31 12:39:33;;;;;;;11.00;3.00;;;21.70;99.90;;;;;;5113380;28;20444;-71
2023/05/31 12:42:01;;;;;;;8.68;2.78;;;21.70;99.90;;;;;;5113635;28;20127;-69
2023/05/31 12:44:28;;;;;;;8.38;2.90;;;21.70;99.90;;;;;;5117333;28;20082;-70
2023/05/31 12:47:01;;;;;;;;;;;21.80;99.90;;;;;;5099964;28;20051;-72
2023/05/31 12:49:28;;;;;;;12.93;3.63;;;21.90;99.90;;;;;;5117320;28;20008;-70
2023/05/31 12:52:07;;;;;;;9.85;2.97;;;22.00;99.90;;;;;;5117349;28;20505;-70